Welcome in flight space of Fly For Fun flying school
Zkoušky z teorie PPL(A), LAPL(A) NEBO ULL? Zkoušky z teorie PPL(A), LAPL(A) NEBO ULL?
Webcam - LKSZ Webcam - LKSZ More

For Pilots

UTC
LOC
METAR/TAF
METAR LKPR 281730Z 11003KT 070V130 9000 OVC020 03/02 Q1016 NOSIG=
TAF LKPR 281700Z 2818/3000 12004KT 7000 OVC016BECMG 2821/2823 4500 BR OVC010TEMPO 2823/2906 2500 -RASN BR OVC002BECMG 2919/2921 SCT010=
Sunrise, sunset and civil twilight for LKSZ

Weather

Navigation services

Other important links